sensor_id;sensor_type;location;lat;lon;timestamp;P1;durP1;ratioP1;P2;durP2;ratioP2
61015;SDS011;46902;52.920;6.536;2023-08-30T00:02:23;16.83;;;15.07;;
61015;SDS011;46902;52.920;6.536;2023-08-30T00:04:48;16.63;;;15.05;;
61015;SDS011;46902;52.920;6.536;2023-08-30T00:07:14;17.98;;;16.20;;
61015;SDS011;46902;52.920;6.536;2023-08-30T00:09:40;18.25;;;16.33;;
61015;SDS011;46902;52.920;6.536;2023-08-30T00:12:05;17.33;;;15.32;;
61015;SDS011;46902;52.920;6.536;2023-08-30T00:14:31;16.88;;;15.27;;
61015;SDS011;46902;52.920;6.536;2023-08-30T00:16:57;17.05;;;14.95;;
61015;SDS011;46902;52.920;6.536;2023-08-30T00:19:23;17.63;;;15.80;;
61015;SDS011;46902;52.920;6.536;2023-08-30T00:21:49;17.17;;;15.52;;
61015;SDS011;46902;52.920;6.536;2023-08-30T00:24:14;16.20;;;14.60;;
61015;SDS011;46902;52.920;6.536;2023-08-30T00:26:40;15.85;;;14.35;;
61015;SDS011;46902;52.920;6.536;2023-08-30T00:29:05;16.27;;;14.68;;
61015;SDS011;46902;52.920;6.536;2023-08-30T00:31:31;17.60;;;15.82;;
61015;SDS011;46902;52.920;6.536;2023-08-30T00:33:56;14.80;;;13.40;;
61015;SDS011;46902;52.920;6.536;2023-08-30T00:36:22;15.48;;;14.00;;
61015;SDS011;46902;52.920;6.536;2023-08-30T00:38:47;15.30;;;13.80;;
61015;SDS011;46902;52.920;6.536;2023-08-30T00:41:14;14.15;;;12.80;;
61015;SDS011;46902;52.920;6.536;2023-08-30T00:43:39;15.35;;;13.75;;
61015;SDS011;46902;52.920;6.536;2023-08-30T00:46:05;14.48;;;13.05;;
61015;SDS011;46902;52.920;6.536;2023-08-30T00:48:30;14.45;;;12.98;;
61015;SDS011;46902;52.920;6.536;2023-08-30T00:50:56;14.27;;;12.88;;
61015;SDS011;46902;52.920;6.536;2023-08-30T00:53:22;12.70;;;11.48;;
61015;SDS011;46902;52.920;6.536;2023-08-30T00:55:48;13.70;;;12.35;;
61015;SDS011;46902;52.920;6.536;2023-08-30T00:58:13;12.77;;;11.45;;
61015;SDS011;46902;52.920;6.536;2023-08-30T01:00:39;11.95;;;10.85;;
61015;SDS011;46902;52.920;6.536;2023-08-30T01:03:05;11.95;;;10.85;;
61015;SDS011;46902;52.920;6.536;2023-08-30T01:05:32;12.32;;;11.10;;
61015;SDS011;46902;52.920;6.536;2023-08-30T01:07:58;12.85;;;11.55;;
61015;SDS011;46902;52.920;6.536;2023-08-30T01:10:26;12.70;;;10.45;;
61015;SDS011;46902;52.920;6.536;2023-08-30T01:13:03;11.65;;;10.45;;
61015;SDS011;46902;52.920;6.536;2023-08-30T01:15:33;12.55;;;11.20;;
61015;SDS011;46902;52.920;6.536;2023-08-30T01:18:00;10.77;;;9.77;;
61015;SDS011;46902;52.920;6.536;2023-08-30T01:20:29;11.00;;;10.00;;
61015;SDS011;46902;52.920;6.536;2023-08-30T01:23:11;12.80;;;10.10;;
61015;SDS011;46902;52.920;6.536;2023-08-30T01:28:27;12.60;;;9.88;;
61015;SDS011;46902;52.920;6.536;2023-08-30T01:30:55;12.60;;;9.32;;
61015;SDS011;46902;52.920;6.536;2023-08-30T01:33:22;12.48;;;10.48;;
61015;SDS011;46902;52.920;6.536;2023-08-30T01:35:52;11.20;;;10.10;;
61015;SDS011;46902;52.920;6.536;2023-08-30T01:38:20;11.45;;;9.82;;
61015;SDS011;46902;52.920;6.536;2023-08-30T01:40:46;11.23;;;9.23;;
61015;SDS011;46902;52.920;6.536;2023-08-30T01:43:13;10.45;;;9.18;;
61015;SDS011;46902;52.920;6.536;2023-08-30T01:45:42;12.63;;;9.90;;
61015;SDS011;46902;52.920;6.536;2023-08-30T01:48:09;11.98;;;9.50;;
61015;SDS011;46902;52.920;6.536;2023-08-30T01:50:37;10.90;;;9.88;;
61015;SDS011;46902;52.920;6.536;2023-08-30T01:53:04;11.38;;;9.32;;
61015;SDS011;46902;52.920;6.536;2023-08-30T01:55:31;12.70;;;9.88;;
61015;SDS011;46902;52.920;6.536;2023-08-30T01:57:58;11.55;;;9.23;;
61015;SDS011;46902;52.920;6.536;2023-08-30T02:00:23;10.57;;;9.55;;
61015;SDS011;46902;52.920;6.536;2023-08-30T02:02:49;10.23;;;9.02;;
61015;SDS011;46902;52.920;6.536;2023-08-30T02:05:15;11.02;;;9.35;;
61015;SDS011;46902;52.920;6.536;2023-08-30T02:07:45;11.05;;;9.95;;
61015;SDS011;46902;52.920;6.536;2023-08-30T02:10:35;10.73;;;9.52;;
61015;SDS011;46902;52.920;6.536;2023-08-30T02:13:03;10.23;;;9.30;;
61015;SDS011;46902;52.920;6.536;2023-08-30T02:15:30;10.98;;;9.88;;
61015;SDS011;46902;52.920;6.536;2023-08-30T02:17:58;10.50;;;9.32;;
61015;SDS011;46902;52.920;6.536;2023-08-30T02:20:24;11.02;;;9.32;;
61015;SDS011;46902;52.920;6.536;2023-08-30T02:22:50;10.15;;;9.15;;
61015;SDS011;46902;52.920;6.536;2023-08-30T02:25:16;10.88;;;9.60;;
61015;SDS011;46902;52.920;6.536;2023-08-30T02:27:41;12.55;;;9.25;;
61015;SDS011;46902;52.920;6.536;2023-08-30T02:30:07;11.23;;;8.75;;
61015;SDS011;46902;52.920;6.536;2023-08-30T02:32:33;11.48;;;9.00;;
61015;SDS011;46902;52.920;6.536;2023-08-30T02:34:58;9.43;;;8.52;;
61015;SDS011;46902;52.920;6.536;2023-08-30T02:37:24;9.57;;;8.57;;
61015;SDS011;46902;52.920;6.536;2023-08-30T02:39:50;10.75;;;8.73;;
61015;SDS011;46902;52.920;6.536;2023-08-30T02:42:15;10.07;;;8.25;;
61015;SDS011;46902;52.920;6.536;2023-08-30T02:44:41;9.95;;;8.70;;
61015;SDS011;46902;52.920;6.536;2023-08-30T02:47:07;9.40;;;8.13;;
61015;SDS011;46902;52.920;6.536;2023-08-30T02:49:32;10.40;;;8.57;;
61015;SDS011;46902;52.920;6.536;2023-08-30T02:51:58;10.65;;;7.90;;
61015;SDS011;46902;52.920;6.536;2023-08-30T02:54:24;9.35;;;8.00;;
61015;SDS011;46902;52.920;6.536;2023-08-30T02:56:49;9.60;;;8.05;;
61015;SDS011;46902;52.920;6.536;2023-08-30T02:59:15;9.00;;;7.25;;
61015;SDS011;46902;52.920;6.536;2023-08-30T03:01:41;10.80;;;8.55;;
61015;SDS011;46902;52.920;6.536;2023-08-30T03:04:07;8.88;;;8.02;;
61015;SDS011;46902;52.920;6.536;2023-08-30T03:06:33;9.45;;;8.15;;
61015;SDS011;46902;52.920;6.536;2023-08-30T03:08:59;9.30;;;8.10;;
61015;SDS011;46902;52.920;6.536;2023-08-30T03:11:25;10.48;;;8.38;;
61015;SDS011;46902;52.920;6.536;2023-08-30T03:13:53;11.35;;;8.40;;
61015;SDS011;46902;52.920;6.536;2023-08-30T03:16:19;10.85;;;8.65;;
61015;SDS011;46902;52.920;6.536;2023-08-30T03:18:45;9.95;;;8.43;;
61015;SDS011;46902;52.920;6.536;2023-08-30T03:21:11;9.05;;;8.10;;
61015;SDS011;46902;52.920;6.536;2023-08-30T03:23:38;10.65;;;8.60;;
61015;SDS011;46902;52.920;6.536;2023-08-30T03:26:08;9.82;;;8.23;;
61015;SDS011;46902;52.920;6.536;2023-08-30T03:28:35;13.32;;;8.80;;
61015;SDS011;46902;52.920;6.536;2023-08-30T03:31:01;10.48;;;8.98;;
61015;SDS011;46902;52.920;6.536;2023-08-30T03:33:27;12.30;;;9.05;;
61015;SDS011;46902;52.920;6.536;2023-08-30T03:35:52;10.77;;;9.60;;
61015;SDS011;46902;52.920;6.536;2023-08-30T03:38:18;9.75;;;8.75;;
61015;SDS011;46902;52.920;6.536;2023-08-30T03:40:44;11.07;;;8.75;;
61015;SDS011;46902;52.920;6.536;2023-08-30T03:43:09;11.18;;;9.27;;
61015;SDS011;46902;52.920;6.536;2023-08-30T03:45:35;10.50;;;9.15;;
61015;SDS011;46902;52.920;6.536;2023-08-30T03:48:02;10.38;;;9.30;;
61015;SDS011;46902;52.920;6.536;2023-08-30T03:50:29;10.20;;;8.90;;
61015;SDS011;46902;52.920;6.536;2023-08-30T03:52:54;11.00;;;9.63;;
61015;SDS011;46902;52.920;6.536;2023-08-30T03:55:20;10.73;;;9.63;;
61015;SDS011;46902;52.920;6.536;2023-08-30T03:57:47;10.88;;;9.07;;
61015;SDS011;46902;52.920;6.536;2023-08-30T04:00:13;10.55;;;8.80;;
61015;SDS011;46902;52.920;6.536;2023-08-30T04:02:39;10.82;;;9.57;;
61015;SDS011;46902;52.920;6.536;2023-08-30T04:05:04;9.48;;;8.27;;
61015;SDS011;46902;52.920;6.536;2023-08-30T04:07:33;10.60;;;8.93;;
61015;SDS011;46902;52.920;6.536;2023-08-30T04:10:00;10.35;;;9.20;;
61015;SDS011;46902;52.920;6.536;2023-08-30T04:12:27;10.88;;;9.48;;
61015;SDS011;46902;52.920;6.536;2023-08-30T04:14:53;12.02;;;8.85;;
61015;SDS011;46902;52.920;6.536;2023-08-30T04:17:19;11.15;;;9.23;;
61015;SDS011;46902;52.920;6.536;2023-08-30T04:19:44;9.25;;;8.30;;
61015;SDS011;46902;52.920;6.536;2023-08-30T04:22:10;12.18;;;9.73;;
61015;SDS011;46902;52.920;6.536;2023-08-30T04:24:36;10.38;;;9.25;;
61015;SDS011;46902;52.920;6.536;2023-08-30T04:27:01;10.57;;;9.48;;
61015;SDS011;46902;52.920;6.536;2023-08-30T04:29:27;11.10;;;9.70;;
61015;SDS011;46902;52.920;6.536;2023-08-30T04:31:52;10.65;;;9.48;;
61015;SDS011;46902;52.920;6.536;2023-08-30T04:34:19;10.73;;;9.13;;
61015;SDS011;46902;52.920;6.536;2023-08-30T04:36:45;12.02;;;9.18;;
61015;SDS011;46902;52.920;6.536;2023-08-30T04:39:10;10.88;;;9.77;;
61015;SDS011;46902;52.920;6.536;2023-08-30T04:41:38;12.13;;;9.85;;
61015;SDS011;46902;52.920;6.536;2023-08-30T04:44:04;13.32;;;10.35;;
61015;SDS011;46902;52.920;6.536;2023-08-30T04:46:30;11.98;;;9.90;;
61015;SDS011;46902;52.920;6.536;2023-08-30T04:48:55;11.43;;;10.23;;
61015;SDS011;46902;52.920;6.536;2023-08-30T04:51:21;11.77;;;10.10;;
61015;SDS011;46902;52.920;6.536;2023-08-30T04:53:46;12.25;;;10.75;;
61015;SDS011;46902;52.920;6.536;2023-08-30T04:56:12;12.90;;;10.98;;
61015;SDS011;46902;52.920;6.536;2023-08-30T04:58:39;11.43;;;10.10;;
61015;SDS011;46902;52.920;6.536;2023-08-30T05:01:05;10.50;;;9.50;;
61015;SDS011;46902;52.920;6.536;2023-08-30T05:03:31;11.60;;;10.40;;
61015;SDS011;46902;52.920;6.536;2023-08-30T05:05:57;13.27;;;9.52;;
61015;SDS011;46902;52.920;6.536;2023-08-30T05:08:23;11.15;;;10.05;;
61015;SDS011;46902;52.920;6.536;2023-08-30T05:10:48;11.95;;;10.05;;
61015;SDS011;46902;52.920;6.536;2023-08-30T05:13:16;13.75;;;10.38;;
61015;SDS011;46902;52.920;6.536;2023-08-30T05:15:41;11.77;;;10.55;;
61015;SDS011;46902;52.920;6.536;2023-08-30T05:18:07;12.50;;;9.65;;
61015;SDS011;46902;52.920;6.536;2023-08-30T05:20:33;10.88;;;9.65;;
61015;SDS011;46902;52.920;6.536;2023-08-30T05:22:58;12.27;;;9.77;;
61015;SDS011;46902;52.920;6.536;2023-08-30T05:25:24;10.07;;;9.07;;
61015;SDS011;46902;52.920;6.536;2023-08-30T05:27:51;11.65;;;9.90;;
61015;SDS011;46902;52.920;6.536;2023-08-30T05:30:16;11.65;;;9.70;;
61015;SDS011;46902;52.920;6.536;2023-08-30T05:32:42;11.75;;;10.38;;
61015;SDS011;46902;52.920;6.536;2023-08-30T05:35:07;11.25;;;10.00;;
61015;SDS011;46902;52.920;6.536;2023-08-30T05:37:33;12.40;;;9.35;;
61015;SDS011;46902;52.920;6.536;2023-08-30T05:39:59;15.15;;;9.85;;
61015;SDS011;46902;52.920;6.536;2023-08-30T05:42:24;15.20;;;9.65;;
61015;SDS011;46902;52.920;6.536;2023-08-30T05:44:50;12.43;;;10.20;;
61015;SDS011;46902;52.920;6.536;2023-08-30T05:47:16;10.50;;;9.18;;
61015;SDS011;46902;52.920;6.536;2023-08-30T05:49:43;11.50;;;9.75;;
61015;SDS011;46902;52.920;6.536;2023-08-30T05:52:08;12.55;;;9.77;;
61015;SDS011;46902;52.920;6.536;2023-08-30T05:54:34;12.10;;;10.38;;
61015;SDS011;46902;52.920;6.536;2023-08-30T05:56:59;10.57;;;9.35;;
61015;SDS011;46902;52.920;6.536;2023-08-30T05:59:25;13.73;;;10.05;;
61015;SDS011;46902;52.920;6.536;2023-08-30T06:01:51;10.60;;;9.50;;
61015;SDS011;46902;52.920;6.536;2023-08-30T06:04:16;12.18;;;10.15;;
61015;SDS011;46902;52.920;6.536;2023-08-30T06:06:42;13.75;;;10.25;;
61015;SDS011;46902;52.920;6.536;2023-08-30T06:09:08;13.43;;;10.85;;
61015;SDS011;46902;52.920;6.536;2023-08-30T06:11:33;14.13;;;9.85;;
61015;SDS011;46902;52.920;6.536;2023-08-30T06:13:59;14.10;;;10.13;;
61015;SDS011;46902;52.920;6.536;2023-08-30T06:16:25;12.02;;;10.27;;
61015;SDS011;46902;52.920;6.536;2023-08-30T06:18:50;15.73;;;10.55;;
61015;SDS011;46902;52.920;6.536;2023-08-30T06:21:16;17.45;;;11.27;;
61015;SDS011;46902;52.920;6.536;2023-08-30T06:23:42;13.10;;;9.90;;
61015;SDS011;46902;52.920;6.536;2023-08-30T06:26:07;14.70;;;11.40;;
61015;SDS011;46902;52.920;6.536;2023-08-30T06:28:33;14.68;;;11.60;;
61015;SDS011;46902;52.920;6.536;2023-08-30T06:30:58;15.95;;;10.88;;
61015;SDS011;46902;52.920;6.536;2023-08-30T06:33:24;18.23;;;10.32;;
61015;SDS011;46902;52.920;6.536;2023-08-30T06:35:50;15.10;;;10.93;;
61015;SDS011;46902;52.920;6.536;2023-08-30T06:38:16;15.70;;;11.00;;
61015;SDS011;46902;52.920;6.536;2023-08-30T06:40:45;13.35;;;11.18;;
61015;SDS011;46902;52.920;6.536;2023-08-30T06:43:11;14.70;;;11.00;;
61015;SDS011;46902;52.920;6.536;2023-08-30T06:45:38;14.85;;;10.23;;
61015;SDS011;46902;52.920;6.536;2023-08-30T06:48:05;13.85;;;11.32;;
61015;SDS011;46902;52.920;6.536;2023-08-30T06:50:32;13.15;;;11.35;;
61015;SDS011;46902;52.920;6.536;2023-08-30T06:52:58;14.40;;;11.40;;
61015;SDS011;46902;52.920;6.536;2023-08-30T06:55:23;13.38;;;11.50;;
61015;SDS011;46902;52.920;6.536;2023-08-30T06:57:49;13.32;;;11.13;;
61015;SDS011;46902;52.920;6.536;2023-08-30T07:00:15;17.65;;;11.18;;
61015;SDS011;46902;52.920;6.536;2023-08-30T07:02:41;14.50;;;10.68;;
61015;SDS011;46902;52.920;6.536;2023-08-30T07:05:10;13.57;;;10.57;;
61015;SDS011;46902;52.920;6.536;2023-08-30T07:07:39;12.63;;;10.40;;
61015;SDS011;46902;52.920;6.536;2023-08-30T07:10:05;13.27;;;10.07;;
61015;SDS011;46902;52.920;6.536;2023-08-30T07:12:30;14.23;;;10.90;;
61015;SDS011;46902;52.920;6.536;2023-08-30T07:14:56;12.50;;;10.32;;
61015;SDS011;46902;52.920;6.536;2023-08-30T07:17:22;14.30;;;10.48;;
61015;SDS011;46902;52.920;6.536;2023-08-30T07:19:48;11.35;;;10.15;;
61015;SDS011;46902;52.920;6.536;2023-08-30T07:22:14;14.15;;;11.07;;
61015;SDS011;46902;52.920;6.536;2023-08-30T07:24:41;15.68;;;10.73;;
61015;SDS011;46902;52.920;6.536;2023-08-30T07:27:08;12.73;;;10.30;;
61015;SDS011;46902;52.920;6.536;2023-08-30T07:29:34;13.23;;;11.50;;
61015;SDS011;46902;52.920;6.536;2023-08-30T07:31:59;14.77;;;10.82;;
61015;SDS011;46902;52.920;6.536;2023-08-30T07:34:25;13.05;;;10.75;;
61015;SDS011;46902;52.920;6.536;2023-08-30T07:36:53;14.18;;;10.77;;
61015;SDS011;46902;52.920;6.536;2023-08-30T07:39:19;14.75;;;11.00;;
61015;SDS011;46902;52.920;6.536;2023-08-30T07:41:45;15.40;;;10.98;;
61015;SDS011;46902;52.920;6.536;2023-08-30T07:44:10;12.95;;;10.48;;
61015;SDS011;46902;52.920;6.536;2023-08-30T07:46:36;12.45;;;10.80;;
61015;SDS011;46902;52.920;6.536;2023-08-30T07:49:02;12.85;;;10.60;;
61015;SDS011;46902;52.920;6.536;2023-08-30T07:51:27;13.13;;;9.50;;
61015;SDS011;46902;52.920;6.536;2023-08-30T07:53:53;12.57;;;10.43;;
61015;SDS011;46902;52.920;6.536;2023-08-30T07:56:19;13.73;;;10.23;;
61015;SDS011;46902;52.920;6.536;2023-08-30T07:58:44;11.43;;;9.95;;
61015;SDS011;46902;52.920;6.536;2023-08-30T08:01:10;15.52;;;10.63;;
61015;SDS011;46902;52.920;6.536;2023-08-30T08:03:36;13.68;;;11.27;;
61015;SDS011;46902;52.920;6.536;2023-08-30T08:06:01;13.45;;;11.07;;
61015;SDS011;46902;52.920;6.536;2023-08-30T08:08:28;13.23;;;11.20;;
61015;SDS011;46902;52.920;6.536;2023-08-30T08:10:54;13.70;;;10.93;;
61015;SDS011;46902;52.920;6.536;2023-08-30T08:13:19;11.77;;;10.52;;
61015;SDS011;46902;52.920;6.536;2023-08-30T08:15:45;16.50;;;11.18;;
61015;SDS011;46902;52.920;6.536;2023-08-30T08:18:11;13.95;;;10.85;;
61015;SDS011;46902;52.920;6.536;2023-08-30T08:20:36;12.27;;;10.45;;
61015;SDS011;46902;52.920;6.536;2023-08-30T08:23:02;12.73;;;10.52;;
61015;SDS011;46902;52.920;6.536;2023-08-30T08:25:28;14.40;;;10.77;;
61015;SDS011;46902;52.920;6.536;2023-08-30T08:27:57;14.60;;;10.98;;
61015;SDS011;46902;52.920;6.536;2023-08-30T08:30:22;13.98;;;11.18;;
61015;SDS011;46902;52.920;6.536;2023-08-30T08:32:48;12.00;;;10.25;;
61015;SDS011;46902;52.920;6.536;2023-08-30T08:35:14;17.08;;;11.70;;
61015;SDS011;46902;52.920;6.536;2023-08-30T08:37:39;13.82;;;10.75;;
61015;SDS011;46902;52.920;6.536;2023-08-30T08:40:05;13.50;;;10.73;;
61015;SDS011;46902;52.920;6.536;2023-08-30T08:42:33;14.00;;;10.50;;
61015;SDS011;46902;52.920;6.536;2023-08-30T08:45:00;13.98;;;11.18;;
61015;SDS011;46902;52.920;6.536;2023-08-30T08:47:27;12.10;;;10.20;;
61015;SDS011;46902;52.920;6.536;2023-08-30T08:49:55;15.77;;;10.18;;
61015;SDS011;46902;52.920;6.536;2023-08-30T08:52:21;13.63;;;10.27;;
61015;SDS011;46902;52.920;6.536;2023-08-30T08:54:47;14.48;;;10.20;;
61015;SDS011;46902;52.920;6.536;2023-08-30T08:57:12;13.02;;;10.30;;
61015;SDS011;46902;52.920;6.536;2023-08-30T08:59:38;13.77;;;10.10;;
61015;SDS011;46902;52.920;6.536;2023-08-30T09:02:04;12.02;;;10.65;;
61015;SDS011;46902;52.920;6.536;2023-08-30T09:04:31;13.70;;;10.75;;
61015;SDS011;46902;52.920;6.536;2023-08-30T09:07:00;13.93;;;9.95;;
61015;SDS011;46902;52.920;6.536;2023-08-30T09:09:27;13.77;;;10.50;;
61015;SDS011;46902;52.920;6.536;2023-08-30T09:11:52;14.52;;;10.40;;
61015;SDS011;46902;52.920;6.536;2023-08-30T09:14:24;15.43;;;9.63;;
61015;SDS011;46902;52.920;6.536;2023-08-30T09:16:57;12.27;;;10.18;;
61015;SDS011;46902;52.920;6.536;2023-08-30T09:19:23;12.63;;;10.07;;
61015;SDS011;46902;52.920;6.536;2023-08-30T09:21:53;14.20;;;10.20;;
61015;SDS011;46902;52.920;6.536;2023-08-30T09:24:23;14.18;;;10.23;;
61015;SDS011;46902;52.920;6.536;2023-08-30T09:26:50;11.57;;;8.55;;
61015;SDS011;46902;52.920;6.536;2023-08-30T09:29:18;13.73;;;9.75;;
61015;SDS011;46902;52.920;6.536;2023-08-30T09:31:44;13.80;;;9.10;;
61015;SDS011;46902;52.920;6.536;2023-08-30T09:34:10;15.35;;;10.30;;
61015;SDS011;46902;52.920;6.536;2023-08-30T09:36:40;14.40;;;9.80;;
61015;SDS011;46902;52.920;6.536;2023-08-30T09:39:07;13.75;;;9.88;;
61015;SDS011;46902;52.920;6.536;2023-08-30T09:41:37;15.02;;;9.68;;
61015;SDS011;46902;52.920;6.536;2023-08-30T09:44:12;15.80;;;9.45;;
61015;SDS011;46902;52.920;6.536;2023-08-30T09:46:39;11.32;;;9.07;;
61015;SDS011;46902;52.920;6.536;2023-08-30T09:49:17;12.30;;;8.60;;
61015;SDS011;46902;52.920;6.536;2023-08-30T09:51:48;10.15;;;8.13;;
61015;SDS011;46902;52.920;6.536;2023-08-30T09:54:16;11.20;;;8.32;;
61015;SDS011;46902;52.920;6.536;2023-08-30T09:56:53;11.25;;;8.55;;
61015;SDS011;46902;52.920;6.536;2023-08-30T09:59:21;9.80;;;8.77;;
61015;SDS011;46902;52.920;6.536;2023-08-30T10:01:47;12.23;;;9.15;;
61015;SDS011;46902;52.920;6.536;2023-08-30T10:04:13;10.60;;;8.88;;
61015;SDS011;46902;52.920;6.536;2023-08-30T10:06:40;10.85;;;9.23;;
61015;SDS011;46902;52.920;6.536;2023-08-30T10:09:07;11.40;;;8.82;;
61015;SDS011;46902;52.920;6.536;2023-08-30T10:11:37;11.05;;;8.77;;
61015;SDS011;46902;52.920;6.536;2023-08-30T10:14:04;10.57;;;9.10;;
61015;SDS011;46902;52.920;6.536;2023-08-30T10:16:43;13.27;;;9.38;;
61015;SDS011;46902;52.920;6.536;2023-08-30T10:19:11;14.77;;;10.90;;
61015;SDS011;46902;52.920;6.536;2023-08-30T10:21:38;15.05;;;11.05;;
61015;SDS011;46902;52.920;6.536;2023-08-30T10:24:05;12.10;;;9.93;;
61015;SDS011;46902;52.920;6.536;2023-08-30T10:26:33;12.50;;;10.02;;
61015;SDS011;46902;52.920;6.536;2023-08-30T10:29:00;10.32;;;8.85;;
61015;SDS011;46902;52.920;6.536;2023-08-30T10:31:28;9.80;;;8.52;;
61015;SDS011;46902;52.920;6.536;2023-08-30T10:33:54;13.48;;;9.00;;
61015;SDS011;46902;52.920;6.536;2023-08-30T10:36:24;10.13;;;8.95;;
61015;SDS011;46902;52.920;6.536;2023-08-30T10:38:51;10.20;;;8.48;;
61015;SDS011;46902;52.920;6.536;2023-08-30T10:41:21;11.07;;;8.50;;
61015;SDS011;46902;52.920;6.536;2023-08-30T10:43:49;12.23;;;8.50;;
61015;SDS011;46902;52.920;6.536;2023-08-30T10:46:16;9.85;;;8.23;;
61015;SDS011;46902;52.920;6.536;2023-08-30T10:48:42;10.27;;;8.70;;
61015;SDS011;46902;52.920;6.536;2023-08-30T10:54:12;11.90;;;9.05;;
61015;SDS011;46902;52.920;6.536;2023-08-30T10:56:48;15.00;;;9.45;;
61015;SDS011;46902;52.920;6.536;2023-08-30T10:59:21;10.43;;;8.93;;
61015;SDS011;46902;52.920;6.536;2023-08-30T11:01:48;12.05;;;9.35;;
61015;SDS011;46902;52.920;6.536;2023-08-30T11:04:16;10.43;;;8.82;;
61015;SDS011;46902;52.920;6.536;2023-08-30T11:06:46;10.00;;;9.00;;
61015;SDS011;46902;52.920;6.536;2023-08-30T11:09:13;9.23;;;8.25;;
61015;SDS011;46902;52.920;6.536;2023-08-30T11:11:43;10.82;;;8.90;;
61015;SDS011;46902;52.920;6.536;2023-08-30T11:14:09;10.80;;;8.85;;
61015;SDS011;46902;52.920;6.536;2023-08-30T11:16:35;12.15;;;8.63;;
61015;SDS011;46902;52.920;6.536;2023-08-30T11:19:04;12.68;;;9.40;;
61015;SDS011;46902;52.920;6.536;2023-08-30T11:21:31;12.10;;;9.20;;
61015;SDS011;46902;52.920;6.536;2023-08-30T11:23:59;11.38;;;8.75;;
61015;SDS011;46902;52.920;6.536;2023-08-30T11:26:25;9.68;;;8.30;;
61015;SDS011;46902;52.920;6.536;2023-08-30T11:28:51;9.23;;;8.32;;
61015;SDS011;46902;52.920;6.536;2023-08-30T11:31:21;11.43;;;8.30;;
61015;SDS011;46902;52.920;6.536;2023-08-30T11:33:51;10.43;;;8.30;;
61015;SDS011;46902;52.920;6.536;2023-08-30T11:36:24;10.57;;;8.45;;
61015;SDS011;46902;52.920;6.536;2023-08-30T11:38:52;9.55;;;7.85;;
61015;SDS011;46902;52.920;6.536;2023-08-30T11:41:21;9.43;;;8.43;;
61015;SDS011;46902;52.920;6.536;2023-08-30T11:43:48;10.18;;;8.32;;
61015;SDS011;46902;52.920;6.536;2023-08-30T11:46:14;9.13;;;8.23;;
61015;SDS011;46902;52.920;6.536;2023-08-30T11:48:40;11.68;;;8.23;;
61015;SDS011;46902;52.920;6.536;2023-08-30T11:51:06;10.77;;;8.30;;
61015;SDS011;46902;52.920;6.536;2023-08-30T11:53:33;9.32;;;8.20;;
61015;SDS011;46902;52.920;6.536;2023-08-30T11:55:59;10.68;;;8.55;;
61015;SDS011;46902;52.920;6.536;2023-08-30T11:58:25;11.07;;;9.27;;
61015;SDS011;46902;52.920;6.536;2023-08-30T12:00:51;11.15;;;8.10;;
61015;SDS011;46902;52.920;6.536;2023-08-30T12:03:19;10.70;;;8.73;;
61015;SDS011;46902;52.920;6.536;2023-08-30T12:05:45;8.25;;;7.35;;
61015;SDS011;46902;52.920;6.536;2023-08-30T12:10:44;11.30;;;8.13;;
61015;SDS011;46902;52.920;6.536;2023-08-30T12:13:30;13.10;;;8.82;;
61015;SDS011;46902;52.920;6.536;2023-08-30T12:15:58;9.68;;;8.48;;
61015;SDS011;46902;52.920;6.536;2023-08-30T12:18:25;9.23;;;7.72;;
61015;SDS011;46902;52.920;6.536;2023-08-30T12:23:24;11.93;;;8.70;;
61015;SDS011;46902;52.920;6.536;2023-08-30T12:25:58;8.98;;;8.07;;
61015;SDS011;46902;52.920;6.536;2023-08-30T12:28:35;10.45;;;7.78;;
61015;SDS011;46902;52.920;6.536;2023-08-30T12:31:05;7.43;;;6.72;;
61015;SDS011;46902;52.920;6.536;2023-08-30T12:33:30;8.65;;;7.80;;
61015;SDS011;46902;52.920;6.536;2023-08-30T12:35:56;9.48;;;8.23;;
61015;SDS011;46902;52.920;6.536;2023-08-30T12:38:23;8.30;;;7.50;;
61015;SDS011;46902;52.920;6.536;2023-08-30T12:40:52;8.95;;;7.07;;
61015;SDS011;46902;52.920;6.536;2023-08-30T12:43:19;8.32;;;7.53;;
61015;SDS011;46902;52.920;6.536;2023-08-30T12:45:45;8.25;;;6.82;;
61015;SDS011;46902;52.920;6.536;2023-08-30T12:48:12;9.68;;;7.25;;
61015;SDS011;46902;52.920;6.536;2023-08-30T12:50:43;8.57;;;7.60;;
61015;SDS011;46902;52.920;6.536;2023-08-30T12:53:10;7.15;;;6.45;;
61015;SDS011;46902;52.920;6.536;2023-08-30T12:55:42;7.53;;;6.38;;
61015;SDS011;46902;52.920;6.536;2023-08-30T12:58:08;7.32;;;6.53;;
61015;SDS011;46902;52.920;6.536;2023-08-30T13:00:34;7.30;;;6.18;;
61015;SDS011;46902;52.920;6.536;2023-08-30T13:03:00;7.03;;;6.40;;
61015;SDS011;46902;52.920;6.536;2023-08-30T13:05:26;8.40;;;6.47;;
61015;SDS011;46902;52.920;6.536;2023-08-30T13:07:52;6.72;;;6.10;;
61015;SDS011;46902;52.920;6.536;2023-08-30T13:10:17;6.90;;;5.53;;
61015;SDS011;46902;52.920;6.536;2023-08-30T13:12:43;6.25;;;5.55;;
61015;SDS011;46902;52.920;6.536;2023-08-30T13:15:09;5.95;;;5.35;;
61015;SDS011;46902;52.920;6.536;2023-08-30T13:17:35;5.25;;;4.50;;
61015;SDS011;46902;52.920;6.536;2023-08-30T13:20:01;5.38;;;4.88;;
61015;SDS011;46902;52.920;6.536;2023-08-30T13:22:28;6.03;;;5.05;;
61015;SDS011;46902;52.920;6.536;2023-08-30T13:24:53;6.70;;;4.20;;
61015;SDS011;46902;52.920;6.536;2023-08-30T13:27:19;5.03;;;4.40;;
61015;SDS011;46902;52.920;6.536;2023-08-30T13:29:45;6.75;;;4.57;;
61015;SDS011;46902;52.920;6.536;2023-08-30T13:32:11;6.35;;;4.47;;
61015;SDS011;46902;52.920;6.536;2023-08-30T13:34:37;5.93;;;4.40;;
61015;SDS011;46902;52.920;6.536;2023-08-30T13:37:03;4.85;;;4.45;;
61015;SDS011;46902;52.920;6.536;2023-08-30T13:39:29;5.63;;;5.00;;
61015;SDS011;46902;52.920;6.536;2023-08-30T13:41:55;19.73;;;7.68;;
61015;SDS011;46902;52.920;6.536;2023-08-30T13:44:20;14.43;;;7.10;;
61015;SDS011;46902;52.920;6.536;2023-08-30T13:46:46;12.50;;;6.68;;
61015;SDS011;46902;52.920;6.536;2023-08-30T13:49:13;8.88;;;6.35;;
61015;SDS011;46902;52.920;6.536;2023-08-30T13:51:40;14.88;;;6.53;;
61015;SDS011;46902;52.920;6.536;2023-08-30T13:54:06;8.82;;;5.75;;
61015;SDS011;46902;52.920;6.536;2023-08-30T13:56:32;11.70;;;5.63;;
61015;SDS011;46902;52.920;6.536;2023-08-30T13:58:57;7.45;;;4.78;;
61015;SDS011;46902;52.920;6.536;2023-08-30T14:01:23;7.75;;;5.20;;
61015;SDS011;46902;52.920;6.536;2023-08-30T14:03:49;8.50;;;5.97;;
61015;SDS011;46902;52.920;6.536;2023-08-30T14:06:14;7.22;;;4.95;;
61015;SDS011;46902;52.920;6.536;2023-08-30T14:08:40;7.18;;;5.53;;
61015;SDS011;46902;52.920;6.536;2023-08-30T14:11:06;4.93;;;4.43;;
61015;SDS011;46902;52.920;6.536;2023-08-30T14:13:32;4.22;;;3.63;;
61015;SDS011;46902;52.920;6.536;2023-08-30T14:16:04;5.13;;;3.40;;
61015;SDS011;46902;52.920;6.536;2023-08-30T14:18:29;4.32;;;3.00;;
61015;SDS011;46902;52.920;6.536;2023-08-30T14:20:56;6.43;;;3.95;;
61015;SDS011;46902;52.920;6.536;2023-08-30T14:23:23;3.10;;;2.70;;
61015;SDS011;46902;52.920;6.536;2023-08-30T14:25:59;4.63;;;3.55;;
61015;SDS011;46902;52.920;6.536;2023-08-30T14:28:37;3.78;;;3.33;;
61015;SDS011;46902;52.920;6.536;2023-08-30T14:31:06;4.18;;;2.70;;
61015;SDS011;46902;52.920;6.536;2023-08-30T14:33:33;4.22;;;3.20;;
61015;SDS011;46902;52.920;6.536;2023-08-30T14:35:58;3.75;;;3.45;;
61015;SDS011;46902;52.920;6.536;2023-08-30T14:38:26;6.07;;;3.00;;
61015;SDS011;46902;52.920;6.536;2023-08-30T14:40:58;3.25;;;2.95;;
61015;SDS011;46902;52.920;6.536;2023-08-30T14:43:25;3.63;;;2.75;;